sensor_id;sensor_type;location;lat;lon;timestamp;P1;durP1;ratioP1;P2;durP2;ratioP2
18316;SDS011;9284;52.298;21.164;2023-01-29T04:11:53;11.13;;;5.83;;
18316;SDS011;9284;52.298;21.164;2023-01-29T04:14:29;14.13;;;6.87;;
18316;SDS011;9284;52.298;21.164;2023-01-29T04:17:02;12.87;;;5.97;;
18316;SDS011;9284;52.298;21.164;2023-01-29T04:19:42;14.10;;;6.23;;
18316;SDS011;9284;52.298;21.164;2023-01-29T04:22:16;16.00;;;6.60;;
18316;SDS011;9284;52.298;21.164;2023-01-29T04:24:47;12.57;;;6.50;;
18316;SDS011;9284;52.298;21.164;2023-01-29T04:27:25;13.57;;;6.70;;
18316;SDS011;9284;52.298;21.164;2023-01-29T04:30:10;14.00;;;6.90;;
18316;SDS011;9284;52.298;21.164;2023-01-29T04:32:56;15.00;;;6.90;;
18316;SDS011;9284;52.298;21.164;2023-01-29T04:35:41;12.93;;;6.13;;
18316;SDS011;9284;52.298;21.164;2023-01-29T04:38:31;14.20;;;7.43;;
18316;SDS011;9284;52.298;21.164;2023-01-29T04:41:07;10.80;;;5.77;;
18316;SDS011;9284;52.298;21.164;2023-01-29T04:43:46;10.93;;;6.47;;
18316;SDS011;9284;52.298;21.164;2023-01-29T04:46:24;12.77;;;6.60;;
18316;SDS011;9284;52.298;21.164;2023-01-29T04:48:59;13.87;;;6.37;;
18316;SDS011;9284;52.298;21.164;2023-01-29T04:51:41;13.60;;;6.97;;
18316;SDS011;9284;52.298;21.164;2023-01-29T04:54:16;15.47;;;6.97;;
18316;SDS011;9284;52.298;21.164;2023-01-29T04:56:51;12.63;;;6.20;;
18316;SDS011;9284;52.298;21.164;2023-01-29T04:59:27;11.20;;;6.23;;
18316;SDS011;9284;52.298;21.164;2023-01-29T05:02:00;14.70;;;6.53;;
18316;SDS011;9284;52.298;21.164;2023-01-29T05:04:36;15.30;;;6.37;;
18316;SDS011;9284;52.298;21.164;2023-01-29T05:07:07;11.77;;;6.60;;
18316;SDS011;9284;52.298;21.164;2023-01-29T05:09:39;11.90;;;6.20;;
18316;SDS011;9284;52.298;21.164;2023-01-29T05:12:11;11.73;;;6.17;;
18316;SDS011;9284;52.298;21.164;2023-01-29T05:14:45;10.40;;;5.97;;
18316;SDS011;9284;52.298;21.164;2023-01-29T05:17:16;13.00;;;6.10;;
18316;SDS011;9284;52.298;21.164;2023-01-29T05:19:47;14.50;;;6.83;;
18316;SDS011;9284;52.298;21.164;2023-01-29T05:22:16;21.13;;;9.77;;
18316;SDS011;9284;52.298;21.164;2023-01-29T05:24:48;13.87;;;7.00;;
18316;SDS011;9284;52.298;21.164;2023-01-29T05:27:20;13.90;;;7.23;;
18316;SDS011;9284;52.298;21.164;2023-01-29T05:30:12;10.33;;;6.80;;
18316;SDS011;9284;52.298;21.164;2023-01-29T05:32:41;13.47;;;6.77;;
18316;SDS011;9284;52.298;21.164;2023-01-29T05:35:09;12.50;;;6.67;;
18316;SDS011;9284;52.298;21.164;2023-01-29T05:37:37;17.20;;;7.10;;
18316;SDS011;9284;52.298;21.164;2023-01-29T05:40:06;13.77;;;7.03;;
18316;SDS011;9284;52.298;21.164;2023-01-29T05:42:35;13.63;;;6.97;;
18316;SDS011;9284;52.298;21.164;2023-01-29T05:45:04;14.33;;;7.23;;
18316;SDS011;9284;52.298;21.164;2023-01-29T05:47:35;10.93;;;6.77;;
18316;SDS011;9284;52.298;21.164;2023-01-29T05:50:03;15.47;;;7.33;;
18316;SDS011;9284;52.298;21.164;2023-01-29T05:52:32;23.90;;;9.63;;
18316;SDS011;9284;52.298;21.164;2023-01-29T05:55:00;16.17;;;8.13;;
18316;SDS011;9284;52.298;21.164;2023-01-29T05:57:29;13.67;;;7.40;;
18316;SDS011;9284;52.298;21.164;2023-01-29T05:59:57;17.03;;;7.40;;
18316;SDS011;9284;52.298;21.164;2023-01-29T06:02:27;18.00;;;7.77;;
18316;SDS011;9284;52.298;21.164;2023-01-29T06:04:57;18.57;;;8.60;;
18316;SDS011;9284;52.298;21.164;2023-01-29T06:07:26;16.33;;;7.10;;
18316;SDS011;9284;52.298;21.164;2023-01-29T06:09:54;14.83;;;7.40;;
18316;SDS011;9284;52.298;21.164;2023-01-29T06:12:23;15.53;;;7.63;;
18316;SDS011;9284;52.298;21.164;2023-01-29T06:14:51;16.50;;;7.50;;
18316;SDS011;9284;52.298;21.164;2023-01-29T06:17:20;13.07;;;6.63;;
18316;SDS011;9284;52.298;21.164;2023-01-29T06:19:48;16.17;;;7.47;;
18316;SDS011;9284;52.298;21.164;2023-01-29T06:22:18;13.07;;;6.70;;
18316;SDS011;9284;52.298;21.164;2023-01-29T06:24:46;15.30;;;6.70;;
18316;SDS011;9284;52.298;21.164;2023-01-29T06:27:15;15.70;;;7.97;;
18316;SDS011;9284;52.298;21.164;2023-01-29T06:29:43;17.67;;;7.93;;
18316;SDS011;9284;52.298;21.164;2023-01-29T06:32:13;14.73;;;7.53;;
18316;SDS011;9284;52.298;21.164;2023-01-29T06:34:41;16.50;;;7.60;;
18316;SDS011;9284;52.298;21.164;2023-01-29T06:37:12;13.50;;;6.60;;
18316;SDS011;9284;52.298;21.164;2023-01-29T06:39:41;16.63;;;7.83;;
18316;SDS011;9284;52.298;21.164;2023-01-29T06:42:10;16.07;;;7.00;;
18316;SDS011;9284;52.298;21.164;2023-01-29T06:44:38;16.13;;;7.50;;
18316;SDS011;9284;52.298;21.164;2023-01-29T06:47:07;16.57;;;7.37;;
18316;SDS011;9284;52.298;21.164;2023-01-29T06:49:35;17.03;;;7.40;;
18316;SDS011;9284;52.298;21.164;2023-01-29T06:52:04;12.67;;;6.93;;
18316;SDS011;9284;52.298;21.164;2023-01-29T06:54:32;15.27;;;7.97;;
18316;SDS011;9284;52.298;21.164;2023-01-29T06:57:02;15.00;;;7.60;;
18316;SDS011;9284;52.298;21.164;2023-01-29T06:59:30;15.33;;;7.07;;
18316;SDS011;9284;52.298;21.164;2023-01-29T07:01:58;14.93;;;7.17;;
18316;SDS011;9284;52.298;21.164;2023-01-29T07:04:27;15.43;;;7.63;;
18316;SDS011;9284;52.298;21.164;2023-01-29T07:06:57;16.93;;;7.90;;
18316;SDS011;9284;52.298;21.164;2023-01-29T07:09:26;18.90;;;8.50;;
18316;SDS011;9284;52.298;21.164;2023-01-29T07:11:54;18.93;;;9.23;;
18316;SDS011;9284;52.298;21.164;2023-01-29T07:14:24;15.90;;;7.80;;
18316;SDS011;9284;52.298;21.164;2023-01-29T07:16:52;22.97;;;8.13;;
18316;SDS011;9284;52.298;21.164;2023-01-29T07:19:20;15.73;;;8.33;;
18316;SDS011;9284;52.298;21.164;2023-01-29T07:21:49;15.23;;;7.13;;
18316;SDS011;9284;52.298;21.164;2023-01-29T07:24:17;16.50;;;7.67;;
18316;SDS011;9284;52.298;21.164;2023-01-29T07:26:46;16.43;;;8.20;;
18316;SDS011;9284;52.298;21.164;2023-01-29T07:29:14;18.77;;;7.90;;
18316;SDS011;9284;52.298;21.164;2023-01-29T07:31:43;15.63;;;8.17;;
18316;SDS011;9284;52.298;21.164;2023-01-29T07:34:12;17.60;;;9.03;;
18316;SDS011;9284;52.298;21.164;2023-01-29T07:36:40;16.60;;;8.40;;
18316;SDS011;9284;52.298;21.164;2023-01-29T07:39:08;16.10;;;7.87;;
18316;SDS011;9284;52.298;21.164;2023-01-29T07:41:36;16.47;;;8.33;;
18316;SDS011;9284;52.298;21.164;2023-01-29T07:44:14;17.57;;;7.73;;
18316;SDS011;9284;52.298;21.164;2023-01-29T07:46:43;18.87;;;7.90;;
18316;SDS011;9284;52.298;21.164;2023-01-29T07:49:12;19.80;;;9.10;;
18316;SDS011;9284;52.298;21.164;2023-01-29T07:51:40;19.90;;;8.80;;
18316;SDS011;9284;52.298;21.164;2023-01-29T07:54:08;18.00;;;8.13;;
18316;SDS011;9284;52.298;21.164;2023-01-29T07:56:36;20.37;;;8.70;;
18316;SDS011;9284;52.298;21.164;2023-01-29T07:59:05;18.73;;;8.60;;
18316;SDS011;9284;52.298;21.164;2023-01-29T08:01:33;16.63;;;7.97;;
18316;SDS011;9284;52.298;21.164;2023-01-29T08:04:03;15.80;;;7.87;;
18316;SDS011;9284;52.298;21.164;2023-01-29T08:06:31;18.60;;;8.43;;
18316;SDS011;9284;52.298;21.164;2023-01-29T08:08:59;24.53;;;8.47;;
18316;SDS011;9284;52.298;21.164;2023-01-29T08:11:27;18.97;;;8.93;;
18316;SDS011;9284;52.298;21.164;2023-01-29T08:13:56;15.93;;;8.40;;
18316;SDS011;9284;52.298;21.164;2023-01-29T08:16:24;16.43;;;8.30;;
18316;SDS011;9284;52.298;21.164;2023-01-29T08:18:52;15.90;;;8.17;;
18316;SDS011;9284;52.298;21.164;2023-01-29T08:21:22;18.83;;;8.00;;
18316;SDS011;9284;52.298;21.164;2023-01-29T08:23:50;19.40;;;8.73;;
18316;SDS011;9284;52.298;21.164;2023-01-29T08:26:18;21.57;;;9.87;;
18316;SDS011;9284;52.298;21.164;2023-01-29T08:28:47;17.57;;;8.70;;
18316;SDS011;9284;52.298;21.164;2023-01-29T08:31:15;18.27;;;8.80;;
18316;SDS011;9284;52.298;21.164;2023-01-29T08:33:46;17.30;;;8.23;;
18316;SDS011;9284;52.298;21.164;2023-01-29T08:36:14;25.73;;;10.67;;
18316;SDS011;9284;52.298;21.164;2023-01-29T08:38:44;21.77;;;9.47;;
18316;SDS011;9284;52.298;21.164;2023-01-29T08:41:12;26.67;;;10.70;;
18316;SDS011;9284;52.298;21.164;2023-01-29T08:43:40;21.53;;;8.67;;
18316;SDS011;9284;52.298;21.164;2023-01-29T08:46:08;20.13;;;8.50;;
18316;SDS011;9284;52.298;21.164;2023-01-29T08:48:37;19.30;;;8.97;;
18316;SDS011;9284;52.298;21.164;2023-01-29T08:51:05;18.87;;;8.53;;
18316;SDS011;9284;52.298;21.164;2023-01-29T08:53:34;20.17;;;8.83;;
18316;SDS011;9284;52.298;21.164;2023-01-29T08:56:04;22.53;;;9.70;;
18316;SDS011;9284;52.298;21.164;2023-01-29T08:58:32;24.70;;;10.77;;
18316;SDS011;9284;52.298;21.164;2023-01-29T09:01:04;24.67;;;10.17;;
18316;SDS011;9284;52.298;21.164;2023-01-29T09:03:35;20.47;;;8.50;;
18316;SDS011;9284;52.298;21.164;2023-01-29T09:06:07;22.43;;;9.00;;
18316;SDS011;9284;52.298;21.164;2023-01-29T09:08:36;19.73;;;8.93;;
18316;SDS011;9284;52.298;21.164;2023-01-29T09:11:06;20.97;;;7.63;;
18316;SDS011;9284;52.298;21.164;2023-01-29T09:13:35;15.77;;;7.73;;
18316;SDS011;9284;52.298;21.164;2023-01-29T09:16:04;14.97;;;8.07;;
18316;SDS011;9284;52.298;21.164;2023-01-29T09:18:32;18.57;;;8.07;;
18316;SDS011;9284;52.298;21.164;2023-01-29T09:21:01;16.23;;;7.97;;
18316;SDS011;9284;52.298;21.164;2023-01-29T09:23:29;18.40;;;8.27;;
18316;SDS011;9284;52.298;21.164;2023-01-29T09:25:58;17.57;;;7.93;;
18316;SDS011;9284;52.298;21.164;2023-01-29T09:28:28;17.10;;;8.17;;
18316;SDS011;9284;52.298;21.164;2023-01-29T09:30:59;17.97;;;8.83;;
18316;SDS011;9284;52.298;21.164;2023-01-29T09:33:27;17.33;;;7.87;;
18316;SDS011;9284;52.298;21.164;2023-01-29T09:35:56;17.53;;;8.00;;
18316;SDS011;9284;52.298;21.164;2023-01-29T09:38:25;16.90;;;8.17;;
18316;SDS011;9284;52.298;21.164;2023-01-29T09:40:55;17.23;;;7.47;;
18316;SDS011;9284;52.298;21.164;2023-01-29T09:43:35;15.10;;;7.73;;
18316;SDS011;9284;52.298;21.164;2023-01-29T09:46:12;20.43;;;8.03;;
18316;SDS011;9284;52.298;21.164;2023-01-29T09:48:46;15.17;;;7.73;;
18316;SDS011;9284;52.298;21.164;2023-01-29T09:51:23;21.53;;;8.70;;
18316;SDS011;9284;52.298;21.164;2023-01-29T09:53:56;21.00;;;8.73;;
18316;SDS011;9284;52.298;21.164;2023-01-29T09:56:33;25.03;;;9.07;;
18316;SDS011;9284;52.298;21.164;2023-01-29T09:59:03;23.37;;;8.73;;
18316;SDS011;9284;52.298;21.164;2023-01-29T10:01:32;23.27;;;9.50;;
18316;SDS011;9284;52.298;21.164;2023-01-29T10:04:09;21.47;;;8.27;;
18316;SDS011;9284;52.298;21.164;2023-01-29T10:06:57;18.40;;;8.43;;
18316;SDS011;9284;52.298;21.164;2023-01-29T10:09:52;27.77;;;9.93;;
18316;SDS011;9284;52.298;21.164;2023-01-29T10:12:38;22.70;;;8.83;;
18316;SDS011;9284;52.298;21.164;2023-01-29T10:15:24;22.23;;;8.77;;
18316;SDS011;9284;52.298;21.164;2023-01-29T10:18:21;26.47;;;9.13;;
18316;SDS011;9284;52.298;21.164;2023-01-29T10:21:07;19.50;;;8.47;;
18316;SDS011;9284;52.298;21.164;2023-01-29T10:23:49;17.80;;;8.13;;
18316;SDS011;9284;52.298;21.164;2023-01-29T10:26:22;21.67;;;9.00;;
18316;SDS011;9284;52.298;21.164;2023-01-29T10:28:53;29.00;;;11.37;;
18316;SDS011;9284;52.298;21.164;2023-01-29T10:31:28;24.60;;;9.53;;
18316;SDS011;9284;52.298;21.164;2023-01-29T10:34:00;24.67;;;9.17;;
18316;SDS011;9284;52.298;21.164;2023-01-29T10:36:33;20.00;;;9.23;;
18316;SDS011;9284;52.298;21.164;2023-01-29T10:39:08;19.43;;;9.33;;
18316;SDS011;9284;52.298;21.164;2023-01-29T10:41:45;19.63;;;9.07;;
18316;SDS011;9284;52.298;21.164;2023-01-29T10:44:25;22.33;;;9.77;;
18316;SDS011;9284;52.298;21.164;2023-01-29T10:50:00;22.83;;;10.43;;
18316;SDS011;9284;52.298;21.164;2023-01-29T10:52:45;24.47;;;11.60;;
18316;SDS011;9284;52.298;21.164;2023-01-29T10:55:31;22.47;;;11.13;;
18316;SDS011;9284;52.298;21.164;2023-01-29T10:58:12;24.63;;;12.33;;
18316;SDS011;9284;52.298;21.164;2023-01-29T11:00:49;17.40;;;8.73;;
18316;SDS011;9284;52.298;21.164;2023-01-29T11:03:22;23.43;;;11.63;;
18316;SDS011;9284;52.298;21.164;2023-01-29T11:05:55;29.30;;;11.53;;
18316;SDS011;9284;52.298;21.164;2023-01-29T11:08:31;28.07;;;10.23;;
18316;SDS011;9284;52.298;21.164;2023-01-29T11:11:05;29.23;;;12.90;;
18316;SDS011;9284;52.298;21.164;2023-01-29T11:13:37;28.90;;;11.73;;
18316;SDS011;9284;52.298;21.164;2023-01-29T11:16:10;30.50;;;13.07;;
18316;SDS011;9284;52.298;21.164;2023-01-29T11:18:50;23.43;;;10.90;;
18316;SDS011;9284;52.298;21.164;2023-01-29T11:21:23;24.33;;;10.67;;
18316;SDS011;9284;52.298;21.164;2023-01-29T11:24:06;20.60;;;10.60;;
18316;SDS011;9284;52.298;21.164;2023-01-29T11:26:38;24.60;;;10.97;;
18316;SDS011;9284;52.298;21.164;2023-01-29T11:32:04;18.13;;;9.53;;
18316;SDS011;9284;52.298;21.164;2023-01-29T11:34:36;25.57;;;10.57;;
18316;SDS011;9284;52.298;21.164;2023-01-29T11:37:30;21.03;;;10.70;;
18316;SDS011;9284;52.298;21.164;2023-01-29T11:40:00;25.80;;;10.33;;
18316;SDS011;9284;52.298;21.164;2023-01-29T11:42:54;22.63;;;10.50;;
18316;SDS011;9284;52.298;21.164;2023-01-29T11:45:37;26.73;;;11.60;;
18316;SDS011;9284;52.298;21.164;2023-01-29T11:48:10;23.23;;;10.93;;
18316;SDS011;9284;52.298;21.164;2023-01-29T11:50:51;19.80;;;9.27;;
18316;SDS011;9284;52.298;21.164;2023-01-29T11:53:36;17.97;;;9.60;;
18316;SDS011;9284;52.298;21.164;2023-01-29T11:56:18;20.10;;;9.53;;
18316;SDS011;9284;52.298;21.164;2023-01-29T11:58:49;21.90;;;9.90;;
18316;SDS011;9284;52.298;21.164;2023-01-29T12:01:27;19.07;;;9.57;;
18316;SDS011;9284;52.298;21.164;2023-01-29T12:03:58;20.33;;;9.80;;
18316;SDS011;9284;52.298;21.164;2023-01-29T12:06:31;19.73;;;10.17;;
18316;SDS011;9284;52.298;21.164;2023-01-29T12:09:02;23.30;;;10.27;;
18316;SDS011;9284;52.298;21.164;2023-01-29T12:11:38;17.90;;;9.80;;
18316;SDS011;9284;52.298;21.164;2023-01-29T12:14:21;20.57;;;9.87;;
18316;SDS011;9284;52.298;21.164;2023-01-29T12:16:54;21.03;;;9.37;;
18316;SDS011;9284;52.298;21.164;2023-01-29T12:19:26;20.83;;;9.73;;
18316;SDS011;9284;52.298;21.164;2023-01-29T12:22:03;15.77;;;9.10;;
18316;SDS011;9284;52.298;21.164;2023-01-29T12:24:37;19.23;;;10.73;;
18316;SDS011;9284;52.298;21.164;2023-01-29T12:27:14;21.23;;;11.17;;
18316;SDS011;9284;52.298;21.164;2023-01-29T12:29:48;26.30;;;11.13;;
18316;SDS011;9284;52.298;21.164;2023-01-29T12:32:26;25.27;;;12.00;;
18316;SDS011;9284;52.298;21.164;2023-01-29T12:35:02;23.80;;;10.47;;
18316;SDS011;9284;52.298;21.164;2023-01-29T12:37:43;24.60;;;12.83;;
18316;SDS011;9284;52.298;21.164;2023-01-29T12:40:16;24.67;;;12.00;;
18316;SDS011;9284;52.298;21.164;2023-01-29T12:42:47;34.17;;;15.03;;
18316;SDS011;9284;52.298;21.164;2023-01-29T12:45:17;41.13;;;17.10;;
18316;SDS011;9284;52.298;21.164;2023-01-29T12:47:48;39.10;;;14.70;;
18316;SDS011;9284;52.298;21.164;2023-01-29T12:50:21;28.83;;;13.23;;
18316;SDS011;9284;52.298;21.164;2023-01-29T12:52:58;30.93;;;14.47;;
18316;SDS011;9284;52.298;21.164;2023-01-29T12:55:31;27.53;;;12.37;;
18316;SDS011;9284;52.298;21.164;2023-01-29T12:58:04;25.53;;;11.90;;
18316;SDS011;9284;52.298;21.164;2023-01-29T13:00:45;36.23;;;15.30;;
18316;SDS011;9284;52.298;21.164;2023-01-29T13:03:24;35.73;;;15.97;;
18316;SDS011;9284;52.298;21.164;2023-01-29T13:06:00;37.43;;;16.23;;
18316;SDS011;9284;52.298;21.164;2023-01-29T13:08:35;28.30;;;14.90;;
18316;SDS011;9284;52.298;21.164;2023-01-29T13:11:09;33.33;;;14.43;;
18316;SDS011;9284;52.298;21.164;2023-01-29T13:14:00;30.17;;;13.97;;
18316;SDS011;9284;52.298;21.164;2023-01-29T13:16:41;29.97;;;14.63;;
18316;SDS011;9284;52.298;21.164;2023-01-29T13:19:13;26.40;;;12.97;;
18316;SDS011;9284;52.298;21.164;2023-01-29T13:21:49;22.77;;;11.03;;
18316;SDS011;9284;52.298;21.164;2023-01-29T13:24:22;25.27;;;12.77;;
18316;SDS011;9284;52.298;21.164;2023-01-29T13:26:52;27.47;;;13.23;;
18316;SDS011;9284;52.298;21.164;2023-01-29T13:29:24;26.60;;;13.30;;
18316;SDS011;9284;52.298;21.164;2023-01-29T13:31:54;31.20;;;14.47;;
18316;SDS011;9284;52.298;21.164;2023-01-29T13:34:25;30.00;;;15.03;;
18316;SDS011;9284;52.298;21.164;2023-01-29T13:36:59;31.10;;;15.23;;
18316;SDS011;9284;52.298;21.164;2023-01-29T13:39:33;33.70;;;15.63;;
18316;SDS011;9284;52.298;21.164;2023-01-29T13:42:14;34.63;;;15.00;;
18316;SDS011;9284;52.298;21.164;2023-01-29T13:44:46;29.33;;;14.83;;
18316;SDS011;9284;52.298;21.164;2023-01-29T13:47:20;30.90;;;15.53;;
18316;SDS011;9284;52.298;21.164;2023-01-29T13:49:53;34.10;;;17.37;;
18316;SDS011;9284;52.298;21.164;2023-01-29T13:52:33;33.93;;;15.93;;
18316;SDS011;9284;52.298;21.164;2023-01-29T13:55:08;31.77;;;15.37;;
18316;SDS011;9284;52.298;21.164;2023-01-29T13:57:52;32.27;;;15.37;;
18316;SDS011;9284;52.298;21.164;2023-01-29T14:06:47;30.03;;;14.27;;
18316;SDS011;9284;52.298;21.164;2023-01-29T14:12:32;31.70;;;15.03;;
18316;SDS011;9284;52.298;21.164;2023-01-29T14:15:12;25.87;;;13.63;;
18316;SDS011;9284;52.298;21.164;2023-01-29T14:17:57;32.47;;;14.90;;
18316;SDS011;9284;52.298;21.164;2023-01-29T14:20:49;40.43;;;17.57;;
18316;SDS011;9284;52.298;21.164;2023-01-29T14:23:32;39.07;;;16.27;;
18316;SDS011;9284;52.298;21.164;2023-01-29T14:26:17;41.13;;;17.90;;
18316;SDS011;9284;52.298;21.164;2023-01-29T14:28:55;37.70;;;17.50;;
18316;SDS011;9284;52.298;21.164;2023-01-29T14:31:30;50.53;;;20.00;;
18316;SDS011;9284;52.298;21.164;2023-01-29T14:34:05;39.80;;;18.50;;
18316;SDS011;9284;52.298;21.164;2023-01-29T14:36:40;51.07;;;18.03;;
18316;SDS011;9284;52.298;21.164;2023-01-29T14:39:21;37.73;;;17.47;;
18316;SDS011;9284;52.298;21.164;2023-01-29T14:41:54;44.07;;;17.67;;
18316;SDS011;9284;52.298;21.164;2023-01-29T14:50:42;46.57;;;19.17;;
18316;SDS011;9284;52.298;21.164;2023-01-29T14:53:36;46.93;;;18.37;;
18316;SDS011;9284;52.298;21.164;2023-01-29T14:56:13;44.93;;;18.90;;
18316;SDS011;9284;52.298;21.164;2023-01-29T14:58:44;44.43;;;19.27;;
18316;SDS011;9284;52.298;21.164;2023-01-29T15:01:20;45.60;;;17.90;;
18316;SDS011;9284;52.298;21.164;2023-01-29T15:03:54;42.53;;;18.70;;
18316;SDS011;9284;52.298;21.164;2023-01-29T15:06:31;51.87;;;21.20;;
18316;SDS011;9284;52.298;21.164;2023-01-29T15:09:11;42.30;;;19.33;;
18316;SDS011;9284;52.298;21.164;2023-01-29T15:11:48;45.10;;;20.50;;
18316;SDS011;9284;52.298;21.164;2023-01-29T15:14:25;42.77;;;18.93;;
18316;SDS011;9284;52.298;21.164;2023-01-29T15:16:59;46.60;;;21.80;;
18316;SDS011;9284;52.298;21.164;2023-01-29T15:19:36;44.43;;;19.70;;
18316;SDS011;9284;52.298;21.164;2023-01-29T15:22:10;51.80;;;21.13;;
18316;SDS011;9284;52.298;21.164;2023-01-29T15:24:40;49.57;;;21.10;;
18316;SDS011;9284;52.298;21.164;2023-01-29T15:27:12;41.90;;;19.70;;
18316;SDS011;9284;52.298;21.164;2023-01-29T15:29:43;49.33;;;21.17;;
18316;SDS011;9284;52.298;21.164;2023-01-29T15:32:18;51.17;;;21.40;;
18316;SDS011;9284;52.298;21.164;2023-01-29T15:34:57;53.80;;;22.40;;
18316;SDS011;9284;52.298;21.164;2023-01-29T15:37:29;54.20;;;22.53;;
18316;SDS011;9284;52.298;21.164;2023-01-29T15:39:59;54.07;;;23.10;;
18316;SDS011;9284;52.298;21.164;2023-01-29T15:42:41;44.50;;;18.67;;
18316;SDS011;9284;52.298;21.164;2023-01-29T15:45:20;44.50;;;19.60;;
18316;SDS011;9284;52.298;21.164;2023-01-29T15:47:58;40.87;;;17.23;;
18316;SDS011;9284;52.298;21.164;2023-01-29T15:50:33;45.23;;;19.73;;
18316;SDS011;9284;52.298;21.164;2023-01-29T15:53:06;52.23;;;21.37;;
18316;SDS011;9284;52.298;21.164;2023-01-29T15:55:40;51.13;;;17.60;;
18316;SDS011;9284;52.298;21.164;2023-01-29T15:58:11;36.33;;;16.77;;
18316;SDS011;9284;52.298;21.164;2023-01-29T16:00:47;37.67;;;16.43;;
18316;SDS011;9284;52.298;21.164;2023-01-29T16:03:18;34.00;;;14.93;;
18316;SDS011;9284;52.298;21.164;2023-01-29T16:05:50;40.83;;;18.87;;
18316;SDS011;9284;52.298;21.164;2023-01-29T16:08:19;39.77;;;17.00;;
18316;SDS011;9284;52.298;21.164;2023-01-29T16:10:49;35.07;;;14.73;;
18316;SDS011;9284;52.298;21.164;2023-01-29T16:13:21;40.13;;;16.83;;
18316;SDS011;9284;52.298;21.164;2023-01-29T16:15:54;44.60;;;18.03;;
18316;SDS011;9284;52.298;21.164;2023-01-29T16:18:27;42.00;;;19.13;;
18316;SDS011;9284;52.298;21.164;2023-01-29T16:21:02;43.27;;;19.07;;
18316;SDS011;9284;52.298;21.164;2023-01-29T16:23:34;48.03;;;20.40;;
18316;SDS011;9284;52.298;21.164;2023-01-29T16:26:07;37.47;;;17.43;;
18316;SDS011;9284;52.298;21.164;2023-01-29T16:28:42;42.20;;;17.73;;
18316;SDS011;9284;52.298;21.164;2023-01-29T16:31:11;33.27;;;15.53;;
18316;SDS011;9284;52.298;21.164;2023-01-29T16:33:47;30.47;;;15.30;;
18316;SDS011;9284;52.298;21.164;2023-01-29T16:36:17;33.77;;;15.53;;
18316;SDS011;9284;52.298;21.164;2023-01-29T16:38:47;38.33;;;16.53;;
18316;SDS011;9284;52.298;21.164;2023-01-29T16:41:27;35.20;;;16.03;;
18316;SDS011;9284;52.298;21.164;2023-01-29T16:43:57;43.50;;;19.13;;
18316;SDS011;9284;52.298;21.164;2023-01-29T16:46:31;44.23;;;18.30;;
18316;SDS011;9284;52.298;21.164;2023-01-29T16:49:01;37.87;;;18.13;;
18316;SDS011;9284;52.298;21.164;2023-01-29T16:51:53;34.80;;;17.63;;
18316;SDS011;9284;52.298;21.164;2023-01-29T16:54:22;43.97;;;19.20;;
18316;SDS011;9284;52.298;21.164;2023-01-29T16:56:53;41.33;;;18.73;;
18316;SDS011;9284;52.298;21.164;2023-01-29T16:59:27;43.93;;;20.57;;
18316;SDS011;9284;52.298;21.164;2023-01-29T17:01:59;44.20;;;18.67;;
18316;SDS011;9284;52.298;21.164;2023-01-29T17:04:28;41.80;;;18.43;;
18316;SDS011;9284;52.298;21.164;2023-01-29T17:06:58;45.70;;;19.80;;
18316;SDS011;9284;52.298;21.164;2023-01-29T17:09:28;43.10;;;18.50;;
18316;SDS011;9284;52.298;21.164;2023-01-29T17:12:01;44.87;;;18.47;;
18316;SDS011;9284;52.298;21.164;2023-01-29T17:14:32;48.57;;;19.97;;
18316;SDS011;9284;52.298;21.164;2023-01-29T17:17:05;46.37;;;20.27;;
18316;SDS011;9284;52.298;21.164;2023-01-29T17:19:40;46.03;;;20.03;;
18316;SDS011;9284;52.298;21.164;2023-01-29T17:22:13;50.10;;;22.63;;
18316;SDS011;9284;52.298;21.164;2023-01-29T17:24:44;45.77;;;20.20;;
18316;SDS011;9284;52.298;21.164;2023-01-29T17:27:17;44.07;;;19.07;;
18316;SDS011;9284;52.298;21.164;2023-01-29T17:29:47;45.50;;;20.00;;
18316;SDS011;9284;52.298;21.164;2023-01-29T17:32:22;51.53;;;21.23;;
18316;SDS011;9284;52.298;21.164;2023-01-29T17:35:10;51.63;;;21.63;;
18316;SDS011;9284;52.298;21.164;2023-01-29T17:37:41;47.17;;;20.50;;
18316;SDS011;9284;52.298;21.164;2023-01-29T17:40:13;50.87;;;20.63;;
18316;SDS011;9284;52.298;21.164;2023-01-29T17:42:46;51.90;;;22.67;;
18316;SDS011;9284;52.298;21.164;2023-01-29T17:45:15;75.47;;;30.63;;
18316;SDS011;9284;52.298;21.164;2023-01-29T17:47:44;65.20;;;28.00;;
18316;SDS011;9284;52.298;21.164;2023-01-29T17:50:15;84.67;;;36.03;;
18316;SDS011;9284;52.298;21.164;2023-01-29T17:52:49;62.07;;;30.27;;
18316;SDS011;9284;52.298;21.164;2023-01-29T17:55:18;57.03;;;25.87;;
18316;SDS011;9284;52.298;21.164;2023-01-29T17:57:47;50.03;;;21.87;;
18316;SDS011;9284;52.298;21.164;2023-01-29T18:00:17;60.73;;;22.90;;
18316;SDS011;9284;52.298;21.164;2023-01-29T18:02:47;48.87;;;21.70;;
18316;SDS011;9284;52.298;21.164;2023-01-29T18:05:15;53.37;;;22.90;;
18316;SDS011;9284;52.298;21.164;2023-01-29T18:07:45;60.23;;;26.60;;
18316;SDS011;9284;52.298;21.164;2023-01-29T18:10:19;63.63;;;27.10;;
18316;SDS011;9284;52.298;21.164;2023-01-29T18:12:48;66.53;;;28.67;;
18316;SDS011;9284;52.298;21.164;2023-01-29T18:15:16;51.90;;;21.13;;
18316;SDS011;9284;52.298;21.164;2023-01-29T18:17:45;49.33;;;21.63;;
18316;SDS011;9284;52.298;21.164;2023-01-29T18:20:18;72.37;;;32.87;;
18316;SDS011;9284;52.298;21.164;2023-01-29T18:22:49;55.20;;;25.13;;
18316;SDS011;9284;52.298;21.164;2023-01-29T18:25:18;75.67;;;31.47;;
18316;SDS011;9284;52.298;21.164;2023-01-29T18:27:50;63.97;;;26.90;;
18316;SDS011;9284;52.298;21.164;2023-01-29T18:30:18;76.47;;;30.47;;
18316;SDS011;9284;52.298;21.164;2023-01-29T18:32:47;64.53;;;25.07;;
18316;SDS011;9284;52.298;21.164;2023-01-29T18:35:15;58.60;;;23.17;;
18316;SDS011;9284;52.298;21.164;2023-01-29T18:37:44;59.97;;;24.53;;
18316;SDS011;9284;52.298;21.164;2023-01-29T18:40:13;55.70;;;23.00;;
18316;SDS011;9284;52.298;21.164;2023-01-29T18:42:44;56.57;;;22.77;;
18316;SDS011;9284;52.298;21.164;2023-01-29T18:45:13;70.03;;;25.80;;
18316;SDS011;9284;52.298;21.164;2023-01-29T18:47:42;55.20;;;23.67;;
18316;SDS011;9284;52.298;21.164;2023-01-29T18:50:11;52.43;;;21.63;;
18316;SDS011;9284;52.298;21.164;2023-01-29T18:52:39;55.73;;;23.73;;
18316;SDS011;9284;52.298;21.164;2023-01-29T18:55:09;57.40;;;24.20;;
18316;SDS011;9284;52.298;21.164;2023-01-29T18:57:37;65.77;;;25.33;;
18316;SDS011;9284;52.298;21.164;2023-01-29T19:00:27;89.00;;;31.93;;
18316;SDS011;9284;52.298;21.164;2023-01-29T19:02:55;81.80;;;30.53;;
18316;SDS011;9284;52.298;21.164;2023-01-29T19:05:24;70.43;;;28.00;;
18316;SDS011;9284;52.298;21.164;2023-01-29T19:07:52;65.53;;;27.30;;
18316;SDS011;9284;52.298;21.164;2023-01-29T19:10:20;60.13;;;25.10;;
18316;SDS011;9284;52.298;21.164;2023-01-29T19:12:49;52.67;;;23.70;;
18316;SDS011;9284;52.298;21.164;2023-01-29T19:15:17;54.83;;;22.93;;
18316;SDS011;9284;52.298;21.164;2023-01-29T19:17:48;58.40;;;23.13;;
18316;SDS011;9284;52.298;21.164;2023-01-29T19:20:17;48.50;;;20.97;;
18316;SDS011;9284;52.298;21.164;2023-01-29T19:22:45;48.13;;;21.40;;
18316;SDS011;9284;52.298;21.164;2023-01-29T19:25:14;49.27;;;21.80;;
18316;SDS011;9284;52.298;21.164;2023-01-29T19:27:43;56.17;;;22.10;;
18316;SDS011;9284;52.298;21.164;2023-01-29T19:30:12;47.83;;;20.87;;
18316;SDS011;9284;52.298;21.164;2023-01-29T19:32:40;48.70;;;21.07;;
18316;SDS011;9284;52.298;21.164;2023-01-29T19:35:10;56.13;;;22.63;;